createdAt,value
2018-04-14T00:00:45.356Z,55.40
2018-04-14T00:03:12.984Z,55.37
2018-04-14T00:05:40.639Z,60.17
2018-04-14T00:08:08.677Z,57.17
2018-04-14T00:10:37.068Z,59.67
2018-04-14T00:13:04.731Z,57.53
2018-04-14T00:15:32.399Z,59.17
2018-04-14T00:18:00.015Z,53.60
2018-04-14T00:20:27.635Z,61.60
2018-04-14T00:22:55.287Z,57.07
2018-04-14T00:25:22.896Z,55.17
2018-04-14T00:27:51.320Z,53.60
2018-04-14T00:30:18.975Z,70.80
2018-04-14T00:32:46.776Z,67.17
2018-04-14T00:35:14.426Z,59.00
2018-04-14T00:37:42.043Z,57.33
2018-04-14T00:40:09.708Z,50.60
2018-04-14T00:42:37.323Z,61.83
2018-04-14T00:45:04.998Z,61.17
2018-04-14T00:47:32.617Z,60.30
2018-04-14T00:50:00.232Z,66.40
2018-04-14T00:52:28.659Z,55.42
2018-04-14T00:54:56.316Z,64.30
2018-04-14T00:57:24.985Z,57.62
2018-04-14T00:59:52.644Z,58.58
2018-04-14T01:02:20.351Z,54.65
2018-04-14T01:04:47.963Z,57.50
2018-04-14T01:07:16.305Z,52.87
2018-04-14T01:09:43.964Z,56.20
2018-04-14T01:12:11.630Z,62.90
2018-04-14T01:14:40.064Z,61.83
2018-04-14T01:17:08.123Z,60.75
2018-04-14T01:19:35.747Z,56.67
2018-04-14T01:22:03.403Z,57.83
2018-04-14T01:24:31.036Z,63.80
2018-04-14T01:26:58.921Z,55.42
2018-04-14T01:29:26.577Z,57.90
2018-04-14T01:31:55.028Z,54.67
2018-04-14T01:34:22.689Z,53.55
2018-04-14T01:36:50.310Z,55.53
2018-04-14T01:39:18.216Z,57.17
2018-04-14T01:41:45.887Z,64.17
2018-04-14T01:44:13.541Z,65.95
2018-04-14T01:46:41.922Z,56.30
2018-04-14T01:49:10.347Z,61.33
2018-04-14T01:51:37.965Z,75.55
2018-04-14T01:54:05.615Z,64.40
2018-04-14T01:56:33.273Z,62.08
2018-04-14T01:59:00.914Z,69.87
2018-04-14T02:01:28.583Z,75.20
2018-04-14T02:03:56.191Z,80.93
2018-04-14T02:06:25.651Z,77.28
2018-04-14T02:08:53.270Z,85.63
2018-04-14T02:11:20.896Z,83.03
2018-04-14T02:13:48.548Z,82.77
2018-04-14T02:16:16.204Z,79.50
2018-04-14T02:18:43.827Z,82.90
2018-04-14T02:21:11.500Z,81.50
2018-04-14T02:23:39.115Z,83.87
2018-04-14T02:26:07.223Z,83.60
2018-04-14T02:28:35.079Z,82.30
2018-04-14T02:31:02.704Z,96.23
2018-04-14T02:33:30.332Z,101.38
2018-04-14T02:35:57.982Z,80.97
2018-04-14T02:38:25.632Z,86.20
2018-04-14T02:40:53.605Z,81.67
2018-04-14T02:43:21.232Z,90.03
2018-04-14T02:45:48.891Z,84.70
2018-04-14T02:48:16.511Z,94.45
2018-04-14T02:50:44.163Z,81.40
2018-04-14T02:53:11.780Z,89.70
2018-04-14T02:55:39.812Z,89.00
2018-04-14T02:58:09.256Z,97.26
2018-04-14T03:00:36.920Z,79.30
2018-04-14T03:03:04.608Z,82.33
2018-04-14T03:05:32.228Z,82.03
2018-04-14T03:08:00.151Z,84.50
2018-04-14T03:10:27.774Z,84.50
2018-04-14T03:12:55.423Z,79.37
2018-04-14T03:15:23.035Z,76.17
2018-04-14T03:17:50.696Z,75.28
2018-04-14T03:20:18.336Z,81.27
2018-04-14T03:22:45.948Z,76.00
2018-04-14T03:25:13.607Z,71.63
2018-04-14T03:27:41.227Z,75.87
2018-04-14T03:30:08.888Z,72.23
2018-04-14T03:32:37.317Z,68.00
2018-04-14T03:35:04.975Z,61.10
2018-04-14T03:37:32.588Z,65.43
2018-04-14T03:40:00.251Z,60.07
2018-04-14T03:42:27.878Z,55.65
2018-04-14T03:44:55.499Z,54.13
2018-04-14T03:47:23.147Z,55.35
2018-04-14T03:49:51.575Z,45.47
2018-04-14T03:52:19.348Z,49.20
2018-04-14T03:54:46.992Z,50.70
2018-04-14T03:57:15.229Z,50.10
2018-04-14T03:59:43.107Z,44.63
2018-04-14T04:02:11.908Z,49.15
2018-04-14T04:04:39.563Z,45.87
2018-04-14T04:07:07.181Z,46.60
2018-04-14T04:09:35.645Z,43.63
2018-04-14T04:12:03.281Z,37.00
2018-04-14T04:14:30.931Z,35.50
2018-04-14T04:16:58.600Z,33.80
2018-04-14T04:19:38.196Z,37.00
2018-04-14T04:22:18.365Z,29.77
2018-04-14T04:24:57.632Z,31.20
2018-04-14T04:27:25.285Z,28.43
2018-04-14T04:29:52.895Z,27.37
2018-04-14T04:32:21.312Z,24.33
2018-04-14T04:34:48.972Z,25.20
2018-04-14T04:37:16.599Z,23.27
2018-04-14T04:39:44.256Z,24.63
2018-04-14T04:42:12.656Z,22.43
2018-04-14T04:44:40.306Z,22.17
2018-04-14T04:47:08.141Z,21.10
2018-04-14T04:49:35.795Z,18.20
2018-04-14T04:52:03.423Z,22.17
2018-04-14T04:54:31.076Z,16.77
2018-04-14T04:56:58.739Z,18.13
2018-04-14T04:59:26.355Z,18.07
2018-04-14T05:01:54.771Z,16.83
2018-04-14T05:04:22.916Z,16.90
2018-04-14T05:06:51.155Z,15.70
2018-04-14T05:09:19.571Z,17.43
2018-04-14T05:11:48.023Z,16.05
2018-04-14T05:14:16.447Z,14.02
2018-04-14T05:16:44.116Z,12.30
2018-04-14T05:19:11.901Z,12.03
2018-04-14T05:21:39.556Z,10.88
2018-04-14T05:24:07.617Z,11.57
2018-04-14T05:26:35.226Z,12.13
2018-04-14T05:29:02.888Z,12.03
2018-04-14T05:31:31.271Z,11.83
2018-04-14T05:34:00.316Z,10.23
2018-04-14T05:36:27.974Z,11.27
2018-04-14T05:38:55.582Z,9.57
2018-04-14T05:41:23.203Z,10.80
2018-04-14T05:43:50.861Z,8.57
2018-04-14T05:46:18.515Z,9.95
2018-04-14T05:48:46.175Z,9.30
2018-04-14T05:51:13.787Z,10.05
2018-04-14T05:53:42.136Z,9.55
2018-04-14T05:56:09.747Z,9.83
2018-04-14T05:58:37.368Z,11.10
2018-04-14T06:01:05.094Z,11.67
2018-04-14T06:03:33.204Z,11.50
2018-04-14T06:06:01.624Z,10.50
2018-04-14T06:08:29.257Z,10.38
2018-04-14T06:10:56.920Z,11.65
2018-04-14T06:13:24.536Z,10.20
2018-04-14T06:15:52.196Z,11.15
2018-04-14T06:18:19.823Z,10.57
2018-04-14T06:20:47.470Z,9.38
2018-04-14T06:23:15.120Z,9.07
2018-04-14T06:25:42.727Z,10.25
2018-04-14T06:28:13.791Z,10.00
2018-04-14T06:30:41.403Z,10.93
2018-04-14T06:33:09.068Z,11.07
2018-04-14T06:35:36.675Z,9.10
2018-04-14T06:38:04.331Z,10.00
2018-04-14T06:40:31.956Z,10.90
2018-04-14T06:42:59.602Z,9.47
2018-04-14T06:45:27.259Z,10.63
2018-04-14T06:47:54.907Z,9.03
2018-04-14T06:50:22.519Z,6.87
2018-04-14T06:52:50.453Z,8.60
2018-04-14T06:55:18.100Z,7.50
2018-04-14T06:57:45.764Z,6.70
2018-04-14T07:00:13.375Z,9.10
2018-04-14T07:02:41.123Z,10.07
2018-04-14T07:05:08.779Z,8.77
2018-04-14T07:07:36.419Z,10.13
2018-04-14T07:10:04.099Z,7.78
2018-04-14T07:12:31.718Z,8.37
2018-04-14T07:14:59.936Z,8.10
2018-04-14T07:17:27.700Z,9.60
2018-04-14T07:19:55.360Z,9.13
2018-04-14T07:22:23.314Z,9.88
2018-04-14T07:24:51.068Z,9.70
2018-04-14T07:27:18.725Z,6.85
2018-04-14T07:29:46.343Z,10.57
2018-04-14T07:32:14.496Z,8.65
2018-04-14T07:34:42.119Z,10.48
2018-04-14T07:37:09.891Z,7.62
2018-04-14T07:39:38.556Z,7.20
2018-04-14T07:42:06.320Z,8.90
2018-04-14T07:44:34.102Z,9.57
2018-04-14T07:47:02.323Z,9.57
2018-04-14T07:49:30.072Z,7.33
2018-04-14T07:51:58.413Z,12.07
2018-04-14T07:54:26.290Z,8.50
2018-04-14T07:56:53.915Z,7.75
2018-04-14T07:59:21.575Z,7.60
2018-04-14T08:01:49.954Z,10.10
2018-04-14T08:04:17.637Z,12.30
2018-04-14T08:06:45.257Z,8.60
2018-04-14T08:09:13.675Z,9.50
2018-04-14T08:11:41.335Z,7.50
2018-04-14T08:14:10.331Z,7.12
2018-04-14T08:16:37.991Z,7.30
2018-04-14T08:19:06.397Z,12.20
2018-04-14T08:21:35.546Z,11.10
2018-04-14T08:24:03.198Z,9.53
2018-04-14T08:26:31.055Z,10.43
2018-04-14T08:29:06.874Z,12.60
2018-04-14T08:31:41.346Z,8.20
2018-04-14T08:34:09.768Z,9.88
2018-04-14T08:36:37.487Z,8.43
2018-04-14T08:39:05.926Z,9.80
2018-04-14T08:41:33.653Z,8.15
2018-04-14T08:44:01.317Z,22.07
2018-04-14T08:46:28.964Z,9.13
2018-04-14T08:48:57.331Z,9.33
2018-04-14T08:51:26.116Z,10.68
2018-04-14T08:53:53.730Z,7.57
2018-04-14T08:56:22.774Z,7.43
2018-04-14T08:58:50.792Z,9.30
2018-04-14T09:01:18.452Z,9.33
2018-04-14T09:03:49.262Z,8.30
2018-04-14T09:06:16.884Z,9.10
2018-04-14T09:08:44.532Z,7.43
2018-04-14T09:11:12.148Z,8.18
2018-04-14T09:13:39.807Z,8.45
2018-04-14T09:16:07.464Z,8.88
2018-04-14T09:18:35.198Z,7.68
2018-04-14T09:21:02.855Z,8.80
2018-04-14T09:23:30.471Z,8.60
2018-04-14T09:25:58.133Z,8.18
2018-04-14T09:28:26.542Z,7.47
2018-04-14T09:30:54.209Z,11.32
2018-04-14T09:33:22.648Z,9.37
2018-04-14T09:35:51.077Z,9.00
2018-04-14T09:38:18.709Z,8.48
2018-04-14T09:40:46.356Z,8.70
2018-04-14T09:43:13.974Z,8.60
2018-04-14T09:45:41.643Z,10.10
2018-04-14T09:48:09.571Z,10.05
2018-04-14T09:50:37.965Z,12.70
2018-04-14T09:53:05.625Z,14.53
2018-04-14T09:55:34.673Z,10.17
2018-04-14T09:58:02.788Z,16.83
2018-04-14T10:00:30.560Z,9.50
2018-04-14T10:03:00.319Z,10.60
2018-04-14T10:05:27.960Z,10.03
2018-04-14T10:07:55.706Z,10.37
2018-04-14T10:10:24.331Z,12.00
2018-04-14T10:12:52.128Z,12.30
2018-04-14T10:15:19.742Z,11.15
2018-04-14T10:17:47.383Z,12.73
2018-04-14T10:20:15.049Z,12.80
2018-04-14T10:22:43.447Z,11.67
2018-04-14T10:25:11.115Z,12.18
2018-04-14T10:27:38.883Z,13.27
2018-04-14T10:30:06.559Z,12.90
2018-04-14T10:32:34.174Z,12.00
2018-04-14T10:35:05.459Z,14.00
2018-04-14T10:37:36.225Z,11.80
2018-04-14T10:40:08.909Z,10.73
2018-04-14T10:42:36.529Z,12.97
2018-04-14T10:45:04.195Z,9.27
2018-04-14T10:47:32.824Z,9.83
2018-04-14T10:50:00.485Z,9.73
2018-04-14T10:52:28.881Z,12.93
2018-04-14T10:54:56.863Z,10.30
2018-04-14T10:57:24.511Z,9.20
2018-04-14T10:59:52.120Z,9.27
2018-04-14T11:02:19.767Z,9.73
2018-04-14T11:04:47.438Z,8.83
2018-04-14T11:07:15.087Z,7.85
2018-04-14T11:09:43.927Z,7.50
2018-04-14T11:12:11.648Z,7.00
2018-04-14T11:14:39.302Z,7.57
2018-04-14T11:17:07.103Z,7.15
2018-04-14T11:19:35.453Z,8.07
2018-04-14T11:22:03.063Z,8.70
2018-04-14T11:24:32.212Z,7.15
2018-04-14T11:27:02.917Z,9.57
2018-04-14T11:29:31.690Z,8.70
2018-04-14T11:32:02.117Z,7.83
2018-04-14T11:34:30.120Z,9.60
2018-04-14T11:37:01.012Z,8.73
2018-04-14T11:39:28.684Z,10.10
2018-04-14T11:41:57.618Z,7.77
2018-04-14T11:44:25.286Z,7.85
2018-04-14T11:46:52.931Z,8.23
2018-04-14T11:49:20.580Z,8.30
2018-04-14T11:51:48.192Z,7.60
2018-04-14T11:54:16.085Z,8.52
2018-04-14T11:56:44.102Z,4.37
2018-04-14T11:59:11.776Z,8.60
2018-04-14T12:01:39.561Z,9.07
2018-04-14T12:04:07.175Z,8.70
2018-04-14T12:06:34.819Z,7.07
2018-04-14T12:09:02.439Z,8.43
2018-04-14T12:11:30.090Z,8.00
2018-04-14T12:13:57.915Z,8.82
2018-04-14T12:16:25.565Z,9.93
2018-04-14T12:18:53.242Z,8.50
2018-04-14T12:21:20.991Z,9.07
2018-04-14T12:23:48.642Z,8.90
2018-04-14T12:26:16.432Z,10.07
2018-04-14T12:28:44.048Z,7.47
2018-04-14T12:31:11.713Z,8.20
2018-04-14T12:33:39.335Z,8.50
2018-04-14T12:36:06.945Z,8.23
2018-04-14T12:38:34.600Z,7.37
2018-04-14T12:41:02.218Z,7.80
2018-04-14T12:43:29.827Z,7.80
2018-04-14T12:45:57.467Z,7.00
2018-04-14T12:48:25.099Z,6.90
2018-04-14T12:50:53.517Z,7.37
2018-04-14T12:53:21.173Z,6.87
2018-04-14T12:55:48.824Z,7.80
2018-04-14T12:58:16.455Z,6.86
2018-04-14T13:00:44.867Z,8.00
2018-04-14T13:03:12.533Z,7.27
2018-04-14T13:05:40.141Z,7.07
2018-04-14T13:08:08.686Z,7.30
2018-04-14T13:10:36.359Z,6.40
2018-04-14T13:13:04.011Z,7.53
2018-04-14T13:15:33.312Z,8.60
2018-04-14T13:18:00.965Z,7.80
2018-04-14T13:20:28.607Z,10.48
2018-04-14T13:22:56.254Z,9.15
2018-04-14T13:25:23.869Z,8.63
2018-04-14T13:27:51.535Z,9.73
2018-04-14T13:30:19.173Z,10.23
2018-04-14T13:32:47.045Z,10.55
2018-04-14T13:35:14.706Z,12.10
2018-04-14T13:37:43.578Z,9.10
2018-04-14T13:40:13.550Z,10.00
2018-04-14T13:42:41.201Z,10.13
2018-04-14T13:45:09.227Z,8.27
2018-04-14T13:47:37.867Z,10.52
2018-04-14T13:50:05.527Z,11.67
2018-04-14T13:52:33.150Z,9.77
2018-04-14T13:55:00.805Z,11.60
2018-04-14T13:57:28.462Z,13.90
2018-04-14T13:59:57.232Z,12.23
2018-04-14T14:02:24.889Z,14.40
2018-04-14T14:04:52.500Z,12.80
2018-04-14T14:07:20.928Z,12.98
2018-04-14T14:09:48.548Z,13.77
2018-04-14T14:12:16.237Z,13.93
2018-04-14T14:14:43.916Z,15.80
2018-04-14T14:17:11.575Z,16.43
2018-04-14T14:19:39.441Z,12.80
2018-04-14T14:22:07.112Z,18.13
2018-04-14T14:24:34.731Z,16.98
2018-04-14T14:27:02.401Z,16.97
2018-04-14T14:29:30.802Z,17.35
2018-04-14T14:32:00.992Z,19.75
2018-04-14T14:34:28.649Z,18.30
2018-04-14T14:36:56.275Z,18.05
2018-04-14T14:39:23.927Z,21.10
2018-04-14T14:41:51.600Z,20.27
2018-04-14T14:44:19.221Z,20.77
2018-04-14T14:46:46.884Z,18.83
2018-04-14T14:49:15.137Z,23.15
2018-04-14T14:51:42.816Z,21.93
2018-04-14T14:54:11.251Z,22.50
2018-04-14T14:56:38.877Z,19.30
2018-04-14T14:59:06.516Z,21.00
2018-04-14T15:01:34.830Z,19.67
2018-04-14T15:04:02.463Z,23.63
2018-04-14T15:06:30.128Z,17.70
2018-04-14T15:08:58.592Z,19.13
2018-04-14T15:11:27.638Z,20.75
2018-04-14T15:13:56.063Z,23.90
2018-04-14T15:16:23.719Z,26.37
2018-04-14T15:18:51.985Z,25.37
2018-04-14T15:21:20.183Z,25.25
2018-04-14T15:23:47.799Z,29.58
2018-04-14T15:26:16.488Z,26.25
2018-04-14T15:28:44.156Z,26.42
2018-04-14T15:31:11.835Z,27.33
2018-04-14T15:33:39.699Z,28.38
2018-04-14T15:36:07.316Z,25.80
2018-04-14T15:38:34.990Z,28.30
2018-04-14T15:41:12.342Z,30.20
2018-04-14T15:43:40.306Z,29.42
2018-04-14T15:46:08.871Z,32.27
2018-04-14T15:48:36.531Z,32.53
2018-04-14T15:51:04.751Z,31.77
2018-04-14T15:53:32.411Z,32.17
2018-04-14T15:56:00.301Z,32.13
2018-04-14T15:58:27.920Z,33.30
2018-04-14T16:00:55.751Z,32.77
2018-04-14T16:03:23.410Z,36.23
2018-04-14T16:05:51.036Z,35.60
2018-04-14T16:08:18.696Z,36.60
2018-04-14T16:10:46.495Z,32.53
2018-04-14T16:13:14.324Z,30.63
2018-04-14T16:15:41.936Z,36.63
2018-04-14T16:18:11.256Z,31.87
2018-04-14T16:20:38.903Z,32.30
2018-04-14T16:23:07.286Z,33.97
2018-04-14T16:25:34.960Z,34.37
2018-04-14T16:28:04.327Z,38.00
2018-04-14T16:30:32.720Z,40.33
2018-04-14T16:33:01.100Z,38.90
2018-04-14T16:35:29.552Z,40.15
2018-04-14T16:37:57.427Z,39.17
2018-04-14T16:40:25.079Z,42.72
2018-04-14T16:42:52.699Z,42.13
2018-04-14T16:45:21.422Z,44.08
2018-04-14T16:47:49.536Z,44.27
2018-04-14T16:50:18.389Z,42.33
2018-04-14T16:52:46.045Z,42.63
2018-04-14T16:55:13.695Z,49.77
2018-04-14T16:57:41.364Z,45.97
2018-04-14T17:00:09.222Z,52.07
2018-04-14T17:02:36.844Z,48.53
2018-04-14T17:05:04.456Z,50.97
2018-04-14T17:07:32.119Z,51.57
2018-04-14T17:10:01.160Z,58.27
2018-04-14T17:12:28.782Z,51.27
2018-04-14T17:14:56.392Z,56.23
2018-04-14T17:17:24.301Z,55.92
2018-04-14T17:19:52.358Z,53.72
2018-04-14T17:22:20.008Z,54.00
2018-04-14T17:24:52.844Z,56.30
2018-04-14T17:27:26.754Z,53.08
2018-04-14T17:29:55.799Z,65.20
2018-04-14T17:32:23.459Z,57.75
2018-04-14T17:34:51.908Z,49.07
2018-04-14T17:37:19.571Z,52.27
2018-04-14T17:39:47.268Z,57.03
2018-04-14T17:42:15.029Z,54.30
2018-04-14T17:44:42.690Z,55.85
2018-04-14T17:47:10.347Z,58.13
2018-04-14T17:49:38.008Z,50.93
2018-04-14T17:52:05.623Z,59.53
2018-04-14T17:54:33.275Z,61.35
2018-04-14T17:57:00.889Z,59.67
2018-04-14T17:59:28.539Z,55.23
2018-04-14T18:01:56.193Z,84.83
2018-04-14T18:04:23.850Z,55.80
2018-04-14T18:06:51.953Z,57.40
2018-04-14T18:09:19.619Z,61.80
2018-04-14T18:11:47.278Z,62.60
2018-04-14T18:14:14.900Z,64.43
2018-04-14T18:16:42.557Z,62.80
2018-04-14T18:19:10.218Z,55.87
2018-04-14T18:21:37.872Z,55.40
2018-04-14T18:24:05.483Z,63.20
2018-04-14T18:26:33.903Z,69.50
2018-04-14T18:29:01.600Z,63.20
2018-04-14T18:31:29.327Z,62.33
2018-04-14T18:33:57.126Z,65.17
2018-04-14T18:36:24.744Z,59.37
2018-04-14T18:38:52.413Z,63.67
2018-04-14T18:41:20.191Z,65.17
2018-04-14T18:43:47.809Z,61.03
2018-04-14T18:46:15.459Z,69.57
2018-04-14T18:48:43.111Z,64.27
2018-04-14T18:51:11.495Z,65.23
2018-04-14T18:53:39.906Z,65.62
2018-04-14T18:56:07.528Z,72.10
2018-04-14T18:58:35.960Z,67.93
2018-04-14T19:01:03.622Z,61.72
2018-04-14T19:03:31.275Z,64.50
2018-04-14T19:05:58.891Z,66.63
2018-04-14T19:08:27.310Z,70.85
2018-04-14T19:10:55.106Z,70.77
2018-04-14T19:13:22.771Z,71.28
2018-04-14T19:15:50.842Z,78.87
2018-04-14T19:18:19.127Z,67.47
2018-04-14T19:20:46.811Z,72.80
2018-04-14T19:23:15.188Z,82.18
2018-04-14T19:25:43.740Z,67.00
2018-04-14T19:28:13.301Z,80.15
2018-04-14T19:30:41.436Z,67.55
2018-04-14T19:33:09.047Z,72.28
2018-04-14T19:35:36.695Z,82.33
2018-04-14T19:38:04.311Z,72.37
2018-04-14T19:40:31.967Z,83.70
2018-04-14T19:42:59.583Z,79.33
2018-04-14T19:45:27.250Z,71.97
2018-04-14T19:47:54.908Z,73.70
2018-04-14T19:50:22.558Z,70.67
2018-04-14T19:52:50.219Z,74.80
2018-04-14T19:55:17.884Z,70.55
2018-04-14T19:57:45.503Z,74.30
2018-04-14T20:00:13.156Z,73.60
2018-04-14T20:02:41.536Z,75.67
2018-04-14T20:05:09.966Z,72.73
2018-04-14T20:07:37.617Z,67.50
2018-04-14T20:10:05.284Z,67.60
2018-04-14T20:12:32.906Z,75.97
2018-04-14T20:15:01.543Z,72.00
2018-04-14T20:17:29.163Z,78.40
2018-04-14T20:19:56.776Z,82.27
2018-04-14T20:22:25.156Z,81.25
2018-04-14T20:24:52.804Z,74.50
2018-04-14T20:27:20.699Z,81.40
2018-04-14T20:29:49.079Z,72.30
2018-04-14T20:32:17.496Z,82.73
2018-04-14T20:34:45.114Z,75.97
2018-04-14T20:37:12.771Z,93.20
2018-04-14T20:39:40.440Z,80.30
2018-04-14T20:42:08.060Z,77.00
2018-04-14T20:44:35.721Z,75.18
2018-04-14T20:47:03.380Z,87.17
2018-04-14T20:49:30.995Z,88.33
2018-04-14T20:51:58.653Z,75.70
2018-04-14T20:54:26.395Z,84.17
2018-04-14T20:56:55.120Z,83.37
2018-04-14T20:59:22.736Z,81.23
2018-04-14T21:01:50.356Z,82.07
2018-04-14T21:04:18.014Z,87.87
2018-04-14T21:06:45.637Z,85.70
2018-04-14T21:09:13.334Z,83.73
2018-04-14T21:11:40.968Z,86.47
2018-04-14T21:14:08.679Z,85.73
2018-04-14T21:16:36.297Z,80.97
2018-04-14T21:19:03.915Z,81.93
2018-04-14T21:21:31.575Z,91.33
2018-04-14T21:23:59.195Z,91.53
2018-04-14T21:26:26.915Z,95.77
2018-04-14T21:28:56.256Z,85.13
2018-04-14T21:31:23.868Z,92.43
2018-04-14T21:33:52.283Z,87.45
2018-04-14T21:36:19.942Z,88.95
2018-04-14T21:38:47.731Z,95.40
2018-04-14T21:41:15.831Z,91.30
2018-04-14T21:43:44.267Z,89.22
2018-04-14T21:46:12.214Z,101.60
2018-04-14T21:48:39.839Z,89.87
2018-04-14T21:51:07.456Z,95.20
2018-04-14T21:53:35.233Z,96.97
2018-04-14T21:56:02.896Z,93.23
2018-04-14T21:58:30.563Z,96.20
2018-04-14T22:00:58.947Z,94.60
2018-04-14T22:03:26.608Z,101.75
2018-04-14T22:05:54.231Z,97.20
2018-04-14T22:08:21.896Z,84.25
2018-04-14T22:10:49.517Z,98.80
2018-04-14T22:13:17.188Z,104.87
2018-04-14T22:15:44.807Z,103.83
2018-04-14T22:18:13.515Z,90.93
2018-04-14T22:20:41.924Z,97.93
2018-04-14T22:23:09.589Z,92.85
2018-04-14T22:25:37.251Z,110.30
2018-04-14T22:28:05.636Z,96.53
2018-04-14T22:30:33.247Z,96.93
2018-04-14T22:33:01.667Z,109.30
2018-04-14T22:35:29.282Z,114.07
2018-04-14T22:37:56.932Z,94.63
2018-04-14T22:40:26.207Z,100.17
2018-04-14T22:42:53.860Z,98.85
2018-04-14T22:45:21.489Z,115.83
2018-04-14T22:47:49.871Z,108.10
2018-04-14T22:50:17.488Z,98.80
2018-04-14T22:52:45.919Z,94.63
2018-04-14T22:55:13.539Z,109.32
2018-04-14T22:57:41.196Z,100.83
2018-04-14T23:00:09.587Z,96.33
2018-04-14T23:02:37.244Z,126.13
2018-04-14T23:05:04.907Z,106.90
2018-04-14T23:07:32.733Z,108.07
2018-04-14T23:10:00.401Z,104.50
2018-04-14T23:12:28.020Z,91.97
2018-04-14T23:14:55.675Z,104.75
2018-04-14T23:17:23.339Z,112.43
2018-04-14T23:19:50.955Z,82.43
2018-04-14T23:22:19.388Z,85.33
2018-04-14T23:24:47.127Z,93.07
2018-04-14T23:27:14.790Z,103.97
2018-04-14T23:29:42.420Z,109.53
2018-04-14T23:32:10.079Z,106.20
2018-04-14T23:34:38.511Z,100.78
2018-04-14T23:37:06.731Z,103.07
2018-04-14T23:39:34.390Z,110.30
2018-04-14T23:42:02.008Z,100.28
2018-04-14T23:44:29.660Z,108.82
2018-04-14T23:46:57.312Z,122.65
2018-04-14T23:49:24.967Z,112.00
2018-04-14T23:51:52.641Z,112.20
2018-04-14T23:54:20.255Z,116.80
2018-04-14T23:56:48.676Z,122.27
2018-04-14T23:59:16.327Z,92.07
